createdAt,value
2019-03-09T00:01:28.878Z,84.70
2019-03-09T00:04:09.178Z,85.20
2019-03-09T00:06:49.556Z,84.60
2019-03-09T00:09:29.612Z,84.80
2019-03-09T00:12:09.434Z,85.20
2019-03-09T00:18:02.046Z,85.30
2019-03-09T00:20:42.197Z,85.40
2019-03-09T00:26:35.013Z,85.20
2019-03-09T00:29:34.263Z,85.40
2019-03-09T00:32:16.888Z,84.20
2019-03-09T00:34:44.865Z,84.90
2019-03-09T00:37:31.879Z,85.10
2019-03-09T00:40:11.457Z,85.40
2019-03-09T00:42:51.736Z,85.50
2019-03-09T00:45:31.835Z,85.50
2019-03-09T00:48:12.194Z,85.40
2019-03-09T00:50:52.328Z,85.10
2019-03-09T00:53:32.542Z,84.60
2019-03-09T00:56:12.513Z,85.20
2019-03-09T00:58:53.028Z,85.50
2019-03-09T01:01:32.773Z,85.90
2019-03-09T01:04:01.047Z,86.10
2019-03-09T01:06:48.049Z,86.60
2019-03-09T01:09:35.084Z,86.40
2019-03-09T01:12:14.866Z,86.80
2019-03-09T01:14:42.577Z,86.70
2019-03-09T01:17:29.634Z,87.00
2019-03-09T01:20:16.676Z,87.00
2019-03-09T01:22:44.277Z,87.20
2019-03-09T01:25:11.922Z,87.60
2019-03-09T01:27:39.517Z,87.40
2019-03-09T01:30:26.513Z,87.00
2019-03-09T01:33:06.313Z,86.50
2019-03-09T01:38:58.729Z,86.60
2019-03-09T01:41:38.996Z,86.20
2019-03-09T01:44:19.157Z,85.80
2019-03-09T01:46:59.165Z,85.50
2019-03-09T01:49:39.425Z,85.20
2019-03-09T01:52:19.648Z,85.40
2019-03-09T01:54:59.725Z,85.10
2019-03-09T01:57:39.682Z,85.20
2019-03-09T02:00:19.817Z,85.20
2019-03-09T02:03:02.071Z,85.30
2019-03-09T02:05:41.959Z,85.50
2019-03-09T02:08:22.075Z,85.80
2019-03-09T02:11:02.259Z,85.30
2019-03-09T02:13:42.767Z,85.30
2019-03-09T02:16:22.666Z,85.30
2019-03-09T02:19:03.271Z,85.30
2019-03-09T02:21:31.032Z,85.00
2019-03-09T02:24:18.062Z,84.80
2019-03-09T02:27:05.151Z,84.60
2019-03-09T02:29:44.938Z,85.20
2019-03-09T02:32:25.043Z,84.50
2019-03-09T02:35:05.301Z,84.30
2019-03-09T02:37:45.365Z,83.60
2019-03-09T02:40:53.967Z,84.00
2019-03-09T02:43:33.913Z,84.20
2019-03-09T02:46:01.537Z,83.60
2019-03-09T02:48:48.574Z,83.80
2019-03-09T02:51:35.608Z,84.30
2019-03-09T02:54:15.550Z,84.60
2019-03-09T02:56:55.697Z,84.50
2019-03-09T02:59:36.911Z,84.70
2019-03-09T03:02:25.581Z,85.00
2019-03-09T03:05:05.783Z,84.80
2019-03-09T03:07:45.915Z,84.90
2019-03-09T03:10:13.971Z,85.30
2019-03-09T03:15:48.005Z,85.00
2019-03-09T03:18:28.230Z,85.90
2019-03-09T03:21:08.411Z,85.70
2019-03-09T03:23:48.647Z,85.50
2019-03-09T03:26:29.062Z,85.30
2019-03-09T03:29:09.165Z,85.60
2019-03-09T03:31:49.118Z,85.50
2019-03-09T03:34:29.632Z,85.50
2019-03-09T03:37:09.499Z,85.50
2019-03-09T03:39:49.571Z,85.60
2019-03-09T03:42:17.207Z,85.60
2019-03-09T03:45:04.446Z,85.00
2019-03-09T03:47:51.495Z,84.70
2019-03-09T03:50:31.643Z,84.40
2019-03-09T03:53:11.610Z,84.40
2019-03-09T03:55:51.610Z,84.10
2019-03-09T03:58:31.745Z,84.00
2019-03-09T04:01:11.807Z,84.20
2019-03-09T04:03:51.926Z,83.70
2019-03-09T04:09:30.199Z,83.20
2019-03-09T04:12:10.470Z,83.80
2019-03-09T04:14:50.569Z,83.40
2019-03-09T04:20:28.963Z,83.70
2019-03-09T04:23:09.435Z,83.40
2019-03-09T04:25:49.131Z,83.50
2019-03-09T04:28:29.089Z,83.30
2019-03-09T04:31:09.370Z,83.60
2019-03-09T04:33:49.432Z,83.70
2019-03-09T04:36:29.521Z,83.80
2019-03-09T04:39:09.557Z,83.90
2019-03-09T04:41:49.552Z,83.40
2019-03-09T04:47:41.961Z,82.30
2019-03-09T04:50:21.761Z,83.00
2019-03-09T04:53:01.877Z,83.20
2019-03-09T04:55:42.153Z,83.50
2019-03-09T04:58:22.162Z,83.70
2019-03-09T05:01:02.133Z,83.50
2019-03-09T05:03:42.189Z,83.30
2019-03-09T05:06:22.574Z,83.40
2019-03-09T05:12:14.570Z,82.80
2019-03-09T05:14:54.646Z,82.90
2019-03-09T05:17:35.751Z,83.20
2019-03-09T05:20:15.752Z,83.00
2019-03-09T05:22:55.845Z,83.40
2019-03-09T05:25:36.105Z,83.90
2019-03-09T05:28:16.264Z,83.50
2019-03-09T05:30:56.440Z,83.90
2019-03-09T05:33:36.750Z,83.70
2019-03-09T05:36:16.931Z,83.90
2019-03-09T05:38:56.942Z,84.10
2019-03-09T05:41:37.118Z,83.80
2019-03-09T05:44:17.086Z,83.50
2019-03-09T05:46:57.329Z,83.30
2019-03-09T05:49:37.467Z,83.10
2019-03-09T05:52:17.510Z,82.90
2019-03-09T05:54:57.640Z,83.20
2019-03-09T05:57:37.811Z,83.20
2019-03-09T06:00:18.337Z,82.90
2019-03-09T06:02:46.555Z,83.40
2019-03-09T06:05:32.954Z,83.20
2019-03-09T06:08:01.171Z,83.20
2019-03-09T06:10:29.118Z,83.00
2019-03-09T06:12:56.859Z,83.30
2019-03-09T06:15:43.868Z,83.10
2019-03-09T06:18:30.912Z,83.50
2019-03-09T06:20:58.764Z,84.40
2019-03-09T06:23:26.386Z,83.30
2019-03-09T06:26:13.432Z,83.60
2019-03-09T06:28:54.284Z,84.00
2019-03-09T06:31:33.845Z,84.40
2019-03-09T06:34:14.224Z,84.70
2019-03-09T06:36:53.986Z,84.20
2019-03-09T06:39:36.048Z,84.10
2019-03-09T06:42:17.413Z,83.60
2019-03-09T06:44:57.387Z,83.30
2019-03-09T06:47:37.620Z,84.00
2019-03-09T06:50:17.668Z,83.00
2019-03-09T06:52:45.284Z,83.20
2019-03-09T06:55:32.305Z,82.70
2019-03-09T06:58:13.602Z,82.80
2019-03-09T07:00:53.695Z,83.00
2019-03-09T07:03:21.616Z,83.10
2019-03-09T07:09:14.811Z,82.20
2019-03-09T07:12:01.849Z,80.60
2019-03-09T07:14:42.089Z,79.80
2019-03-09T07:17:22.689Z,80.40
2019-03-09T07:20:12.289Z,79.80
2019-03-09T07:25:30.143Z,80.10
2019-03-09T07:28:10.210Z,80.50
2019-03-09T07:30:50.338Z,81.10
2019-03-09T07:33:30.381Z,80.30
2019-03-09T07:36:10.771Z,80.60
2019-03-09T07:38:51.009Z,80.10
2019-03-09T07:41:31.273Z,81.40
2019-03-09T07:44:10.951Z,81.60
2019-03-09T07:46:51.006Z,81.50
2019-03-09T07:49:31.346Z,80.40
2019-03-09T07:52:11.449Z,80.10
2019-03-09T07:54:52.167Z,79.70
2019-03-09T07:57:32.530Z,79.80
2019-03-09T08:00:13.368Z,79.30
2019-03-09T08:02:41.076Z,78.70
2019-03-09T08:05:28.109Z,78.70
2019-03-09T08:08:15.144Z,78.80
2019-03-09T08:10:54.925Z,78.70
2019-03-09T08:13:22.589Z,78.50
2019-03-09T08:16:09.610Z,79.30
2019-03-09T08:18:49.369Z,79.40
2019-03-09T08:21:29.512Z,79.70
2019-03-09T08:24:09.586Z,80.10
2019-03-09T08:26:52.375Z,80.40
2019-03-09T08:29:32.770Z,80.00
2019-03-09T08:32:12.825Z,79.80
2019-03-09T08:34:53.080Z,78.60
2019-03-09T08:37:33.083Z,78.20
2019-03-09T08:40:13.190Z,78.30
2019-03-09T08:42:41.042Z,78.70
2019-03-09T08:45:21.142Z,78.30
2019-03-09T08:48:01.217Z,77.10
2019-03-09T08:50:28.818Z,76.90
2019-03-09T08:53:15.883Z,75.60
2019-03-09T08:56:03.230Z,75.00
2019-03-09T08:58:43.658Z,75.50
2019-03-09T09:01:23.617Z,75.00
2019-03-09T09:04:04.138Z,73.70
2019-03-09T09:06:43.839Z,73.50
2019-03-09T09:09:24.454Z,73.40
2019-03-09T09:12:04.256Z,70.70
2019-03-09T09:14:44.345Z,70.40
2019-03-09T09:17:24.341Z,71.00
2019-03-09T09:20:04.362Z,68.90
2019-03-09T09:22:44.461Z,68.40
2019-03-09T09:25:24.674Z,67.00
2019-03-09T09:28:04.963Z,66.50
2019-03-09T09:30:45.041Z,66.40
2019-03-09T09:33:25.275Z,66.90
2019-03-09T09:36:05.439Z,66.60
2019-03-09T09:41:56.974Z,66.20
2019-03-09T09:44:37.125Z,65.60
2019-03-09T09:47:17.202Z,66.90
2019-03-09T09:49:57.241Z,66.30
2019-03-09T09:52:37.298Z,65.70
2019-03-09T09:55:17.497Z,65.20
2019-03-09T09:57:57.525Z,64.20
2019-03-09T10:00:38.089Z,64.10
2019-03-09T10:03:17.774Z,63.80
2019-03-09T10:05:58.177Z,62.60
2019-03-09T10:08:37.764Z,62.20
2019-03-09T10:11:17.893Z,61.50
2019-03-09T10:13:57.982Z,62.80
2019-03-09T10:16:38.239Z,63.40
2019-03-09T10:19:18.214Z,60.60
2019-03-09T10:21:58.307Z,60.50
2019-03-09T10:24:38.632Z,59.30
2019-03-09T10:27:18.977Z,58.80
2019-03-09T10:29:58.792Z,55.80
2019-03-09T10:32:26.421Z,55.30
2019-03-09T10:35:14.053Z,55.70
2019-03-09T10:38:01.137Z,53.40
2019-03-09T10:40:41.393Z,52.00
2019-03-09T10:43:22.293Z,51.90
2019-03-09T10:46:02.371Z,49.40
2019-03-09T10:48:44.227Z,48.70
2019-03-09T10:51:24.663Z,50.40
2019-03-09T10:54:04.789Z,49.70
2019-03-09T10:56:44.757Z,50.00
2019-03-09T10:59:24.932Z,48.90
2019-03-09T11:04:44.838Z,50.80
2019-03-09T11:15:57.998Z,48.80
2019-03-09T11:18:38.016Z,50.80
2019-03-09T11:21:18.296Z,52.10
2019-03-09T11:23:58.361Z,51.80
2019-03-09T11:26:38.427Z,52.70
2019-03-09T11:29:18.397Z,53.50
2019-03-09T11:31:58.481Z,54.40
2019-03-09T11:34:38.653Z,54.40
2019-03-09T11:37:18.843Z,53.80
2019-03-09T11:39:59.117Z,53.30
2019-03-09T11:42:39.365Z,54.10
2019-03-09T11:45:07.645Z,54.40
2019-03-09T11:47:47.386Z,53.90
2019-03-09T11:50:18.449Z,54.80
2019-03-09T11:53:05.498Z,54.40
2019-03-09T11:55:52.527Z,55.70
2019-03-09T11:58:32.599Z,56.10
2019-03-09T12:01:12.805Z,56.20
2019-03-09T12:03:52.914Z,54.30
2019-03-09T12:06:33.117Z,54.60
2019-03-09T12:09:13.339Z,53.30
2019-03-09T12:11:53.666Z,53.30
2019-03-09T12:14:33.909Z,53.70
2019-03-09T12:17:13.985Z,53.70
2019-03-09T12:19:54.138Z,53.50
2019-03-09T12:22:34.274Z,53.20
2019-03-09T12:25:14.539Z,53.30
2019-03-09T12:27:42.464Z,53.30
2019-03-09T12:30:29.753Z,52.40
2019-03-09T12:33:16.874Z,52.80
2019-03-09T12:35:44.924Z,49.60
2019-03-09T12:38:12.691Z,50.20
2019-03-09T12:40:59.819Z,51.00
2019-03-09T12:43:46.944Z,51.50
2019-03-09T12:46:27.270Z,51.30
2019-03-09T12:49:07.326Z,49.90
2019-03-09T12:54:55.921Z,50.50
2019-03-09T12:57:14.770Z,50.00
2019-03-09T12:59:42.873Z,49.90
2019-03-09T13:02:31.067Z,51.20
2019-03-09T13:05:11.045Z,50.50
2019-03-09T13:07:51.707Z,50.30
2019-03-09T13:13:08.997Z,52.20
2019-03-09T13:15:56.179Z,53.00
2019-03-09T13:18:36.475Z,52.90
2019-03-09T13:21:04.291Z,53.40
2019-03-09T13:23:51.566Z,54.10
2019-03-09T13:26:39.083Z,54.20
2019-03-09T13:29:17.314Z,55.00
2019-03-09T13:31:45.178Z,54.90
2019-03-09T13:34:32.217Z,54.50
2019-03-09T13:40:25.606Z,54.70
2019-03-09T13:43:06.221Z,55.50
2019-03-09T13:45:45.963Z,56.30
2019-03-09T13:48:26.050Z,56.70
2019-03-09T13:51:06.105Z,56.50
2019-03-09T13:53:46.440Z,56.50
2019-03-09T13:56:26.828Z,56.80
2019-03-09T13:59:06.797Z,57.00
2019-03-09T14:04:46.313Z,57.50
2019-03-09T14:07:25.903Z,57.60
2019-03-09T14:10:06.265Z,57.60
2019-03-09T14:12:46.386Z,57.40
2019-03-09T14:15:14.183Z,57.70
2019-03-09T14:18:01.315Z,57.90
2019-03-09T14:20:48.590Z,58.80
2019-03-09T14:23:29.082Z,58.90
2019-03-09T14:26:09.261Z,58.80
2019-03-09T14:28:49.310Z,58.70
2019-03-09T14:31:29.366Z,59.30
2019-03-09T14:34:09.811Z,60.20
2019-03-09T14:36:49.973Z,61.30
2019-03-09T14:39:30.212Z,61.50
2019-03-09T14:42:10.502Z,59.80
2019-03-09T14:44:53.898Z,59.00
2019-03-09T14:47:34.464Z,58.70
2019-03-09T14:50:14.556Z,59.00
2019-03-09T14:52:54.886Z,59.10
2019-03-09T14:58:47.401Z,59.90
2019-03-09T15:01:15.261Z,60.60
2019-03-09T15:04:14.231Z,61.60
2019-03-09T15:06:51.244Z,62.50
2019-03-09T15:09:30.864Z,60.30
2019-03-09T15:12:11.008Z,60.80
2019-03-09T15:14:51.157Z,60.50
2019-03-09T15:17:31.535Z,61.60
2019-03-09T15:20:11.680Z,61.40
2019-03-09T15:22:51.812Z,62.50
2019-03-09T15:25:32.036Z,63.30
2019-03-09T15:28:12.140Z,64.50
2019-03-09T15:30:39.873Z,64.90
2019-03-09T15:33:26.991Z,67.30
2019-03-09T15:36:07.516Z,68.30
2019-03-09T15:38:47.690Z,70.00
2019-03-09T15:41:28.410Z,72.20
2019-03-09T15:44:09.032Z,73.00
2019-03-09T15:46:49.348Z,74.20
2019-03-09T15:52:17.797Z,75.70
2019-03-09T15:54:57.750Z,75.80
2019-03-09T15:57:38.294Z,76.70
2019-03-09T16:00:19.331Z,77.20
2019-03-09T16:02:59.217Z,77.70
2019-03-09T16:05:39.321Z,77.70
2019-03-09T16:08:19.416Z,78.40
2019-03-09T16:10:47.179Z,78.50
2019-03-09T16:13:34.263Z,80.30
2019-03-09T16:19:13.319Z,80.20
2019-03-09T16:21:53.224Z,81.40
2019-03-09T16:24:33.593Z,81.30
2019-03-09T16:27:13.287Z,80.80
2019-03-09T16:29:53.217Z,80.70
2019-03-09T16:32:33.449Z,79.00
2019-03-09T16:35:02.367Z,79.50
2019-03-09T16:37:50.437Z,80.10
2019-03-09T16:40:21.443Z,81.00
2019-03-09T16:42:50.785Z,80.50
2019-03-09T16:45:18.416Z,79.80
2019-03-09T16:47:58.370Z,79.40
2019-03-09T16:50:38.582Z,78.90
2019-03-09T16:53:18.626Z,79.30
2019-03-09T16:55:58.778Z,78.80
2019-03-09T16:58:38.749Z,78.20
2019-03-09T17:01:19.132Z,79.80
2019-03-09T17:03:59.015Z,80.90
2019-03-09T17:06:39.174Z,81.70
2019-03-09T17:09:19.121Z,82.10
2019-03-09T17:11:59.195Z,82.40
2019-03-09T17:14:27.046Z,82.50
2019-03-09T17:16:54.706Z,82.60
2019-03-09T17:19:22.346Z,82.60
2019-03-09T17:22:09.425Z,82.00
2019-03-09T17:25:03.788Z,80.90
2019-03-09T17:27:50.891Z,80.90
2019-03-09T17:30:37.956Z,79.70
2019-03-09T17:33:19.251Z,80.10
2019-03-09T17:35:59.533Z,80.50
2019-03-09T17:38:39.651Z,79.30
2019-03-09T17:41:19.829Z,78.50
2019-03-09T17:43:59.891Z,77.50
2019-03-09T17:46:39.890Z,76.90
2019-03-09T17:49:20.100Z,75.10
2019-03-09T17:52:00.560Z,75.10
2019-03-09T17:54:28.335Z,75.40
2019-03-09T17:57:15.634Z,75.40
2019-03-09T17:59:55.998Z,75.70
2019-03-09T18:02:36.157Z,75.70
2019-03-09T18:05:16.621Z,75.40
2019-03-09T18:07:56.701Z,74.40
2019-03-09T18:10:37.066Z,74.90
2019-03-09T18:13:17.459Z,74.60
2019-03-09T18:15:57.450Z,74.60
2019-03-09T18:18:37.617Z,75.20
2019-03-09T18:21:17.710Z,74.30
2019-03-09T18:23:57.873Z,74.00
2019-03-09T18:26:37.995Z,73.50
2019-03-09T18:29:18.278Z,71.90
2019-03-09T18:31:58.394Z,71.50
2019-03-09T18:34:39.681Z,71.40
2019-03-09T18:37:20.106Z,70.70
2019-03-09T18:40:00.465Z,69.40
2019-03-09T18:42:40.599Z,69.50
2019-03-09T18:45:20.663Z,70.00
2019-03-09T18:48:00.601Z,69.40
2019-03-09T18:50:40.847Z,69.20
2019-03-09T18:53:20.711Z,68.80
2019-03-09T18:56:00.818Z,68.30
2019-03-09T18:58:40.912Z,68.20
2019-03-09T19:01:20.943Z,69.00
2019-03-09T19:04:01.099Z,68.70
2019-03-09T19:09:54.570Z,69.80
2019-03-09T19:12:34.675Z,70.80
2019-03-09T19:15:14.721Z,71.40
2019-03-09T19:17:54.666Z,71.80
2019-03-09T19:20:34.798Z,72.50
2019-03-09T19:23:04.233Z,73.20
2019-03-09T19:25:31.837Z,70.70
2019-03-09T19:28:18.994Z,69.90
2019-03-09T19:31:06.033Z,70.40
2019-03-09T19:33:46.461Z,71.50
2019-03-09T19:36:26.478Z,71.20
2019-03-09T19:39:06.652Z,72.10
2019-03-09T19:41:46.994Z,72.60
2019-03-09T19:44:27.187Z,72.50
2019-03-09T19:47:07.381Z,74.00
2019-03-09T19:49:47.771Z,74.20
2019-03-09T19:52:32.156Z,74.50
2019-03-09T19:55:11.983Z,75.20
2019-03-09T19:57:52.436Z,75.70
2019-03-09T20:00:32.291Z,75.70
2019-03-09T20:06:11.536Z,75.90
2019-03-09T20:08:51.896Z,76.70
2019-03-09T20:11:31.946Z,77.10
2019-03-09T20:14:11.899Z,76.20
2019-03-09T20:16:52.493Z,76.20
2019-03-09T20:19:20.380Z,76.00
2019-03-09T20:21:48.107Z,76.00
2019-03-09T20:24:35.251Z,76.20
2019-03-09T20:27:22.314Z,77.20
2019-03-09T20:30:02.170Z,76.80
2019-03-09T20:32:42.278Z,76.80
2019-03-09T20:35:22.369Z,76.80
2019-03-09T20:38:02.563Z,77.10
2019-03-09T20:40:42.735Z,77.40
2019-03-09T20:43:22.839Z,76.80
2019-03-09T20:46:03.296Z,77.60
2019-03-09T20:48:43.062Z,78.10
2019-03-09T20:51:10.765Z,78.70
2019-03-09T20:53:57.823Z,79.50
2019-03-09T20:56:44.914Z,79.90
2019-03-09T20:59:24.541Z,80.30
2019-03-09T21:02:04.666Z,80.50
2019-03-09T21:04:45.030Z,80.40
2019-03-09T21:07:25.452Z,80.60
2019-03-09T21:10:05.466Z,80.40
2019-03-09T21:12:45.396Z,80.80
2019-03-09T21:15:25.609Z,80.60
2019-03-09T21:18:05.565Z,81.20
2019-03-09T21:20:45.614Z,81.20
2019-03-09T21:23:25.837Z,80.80
2019-03-09T21:26:06.083Z,80.80
2019-03-09T21:28:46.386Z,80.60
2019-03-09T21:31:26.718Z,80.60
2019-03-09T21:34:06.970Z,81.50
2019-03-09T21:36:47.186Z,80.90
2019-03-09T21:39:29.393Z,81.10
2019-03-09T21:42:10.023Z,81.10
2019-03-09T21:44:49.895Z,80.70
2019-03-09T21:47:29.727Z,80.50
2019-03-09T21:50:09.975Z,80.70
2019-03-09T21:52:50.536Z,80.20
2019-03-09T21:55:30.259Z,80.10
2019-03-09T21:58:10.624Z,80.30
2019-03-09T22:00:50.395Z,81.80
2019-03-09T22:03:30.646Z,82.00
2019-03-09T22:06:10.926Z,82.50
2019-03-09T22:08:51.119Z,83.30
2019-03-09T22:11:19.220Z,83.20
2019-03-09T22:14:06.327Z,83.80
2019-03-09T22:16:56.242Z,83.70
2019-03-09T22:19:32.837Z,83.80
2019-03-09T22:22:12.464Z,84.10
2019-03-09T22:24:52.673Z,84.20
2019-03-09T22:30:12.189Z,83.90
2019-03-09T22:32:52.729Z,84.10
2019-03-09T22:38:15.762Z,84.10
2019-03-09T22:41:02.824Z,84.00
2019-03-09T22:43:42.568Z,84.80
2019-03-09T22:46:22.651Z,83.90
2019-03-09T22:49:02.733Z,84.90
2019-03-09T22:51:42.899Z,83.90
2019-03-09T22:54:23.017Z,84.20
2019-03-09T22:57:06.672Z,84.30
2019-03-09T22:59:47.156Z,84.20
2019-03-09T23:02:27.617Z,84.20
2019-03-09T23:05:07.803Z,84.40
2019-03-09T23:07:47.924Z,84.40
2019-03-09T23:10:28.450Z,84.40
2019-03-09T23:13:08.154Z,84.10
2019-03-09T23:15:48.475Z,84.00
2019-03-09T23:18:28.612Z,83.90
2019-03-09T23:21:08.880Z,84.10
2019-03-09T23:23:48.983Z,83.80
2019-03-09T23:26:29.249Z,82.80
2019-03-09T23:32:08.547Z,83.40
2019-03-09T23:34:48.994Z,83.30
2019-03-09T23:37:28.686Z,83.20
2019-03-09T23:40:08.923Z,83.50
2019-03-09T23:42:48.985Z,83.60
2019-03-09T23:45:30.101Z,83.90
2019-03-09T23:48:10.085Z,83.70
2019-03-09T23:50:50.329Z,83.80
2019-03-09T23:53:30.633Z,83.40
2019-03-09T23:56:10.920Z,83.60
2019-03-09T23:58:50.778Z,83.80
